createdAt,value
2023-12-07T00:00:05.579Z,13.40
2023-12-07T00:00:38.868Z,11.20
2023-12-07T00:01:31.833Z,11.90
2023-12-07T00:02:38.040Z,9.40
2023-12-07T00:03:11.144Z,12.00
2023-12-07T00:03:44.279Z,11.40
2023-12-07T00:04:17.205Z,9.60
2023-12-07T00:05:56.025Z,8.50
2023-12-07T00:06:29.023Z,10.30
2023-12-07T00:07:01.964Z,11.60
2023-12-07T00:07:34.989Z,10.80
2023-12-07T00:08:43.433Z,12.30
2023-12-07T00:09:16.507Z,11.20
2023-12-07T00:10:55.532Z,10.90
2023-12-07T00:11:28.622Z,11.70
2023-12-07T00:13:41.209Z,7.30
2023-12-07T00:14:14.218Z,7.10
2023-12-07T00:14:47.340Z,9.40
2023-12-07T00:16:26.275Z,10.40
2023-12-07T00:18:05.269Z,10.40
2023-12-07T00:18:38.372Z,13.20
2023-12-07T00:19:11.795Z,12.40
2023-12-07T00:19:44.945Z,9.70
2023-12-07T00:20:18.039Z,14.40
2023-12-07T00:21:24.127Z,10.50
2023-12-07T00:23:03.197Z,10.00
2023-12-07T00:24:09.540Z,9.10
2023-12-07T00:24:42.657Z,14.30
2023-12-07T00:25:17.107Z,9.20
2023-12-07T00:25:50.325Z,12.00
2023-12-07T00:27:30.378Z,12.90
2023-12-07T00:28:38.119Z,11.80
2023-12-07T00:29:11.269Z,10.80
2023-12-07T00:29:44.230Z,10.00
2023-12-07T00:30:50.411Z,12.70
2023-12-07T00:32:29.446Z,14.80
2023-12-07T00:33:35.477Z,9.00
2023-12-07T00:34:11.039Z,8.30
2023-12-07T00:34:44.465Z,10.10
2023-12-07T00:35:17.710Z,11.20
2023-12-07T00:35:50.740Z,12.20
2023-12-07T00:36:23.702Z,13.00
2023-12-07T00:36:56.621Z,13.10
2023-12-07T00:37:29.636Z,10.70
2023-12-07T00:38:03.276Z,9.70
2023-12-07T00:38:37.124Z,13.20
2023-12-07T00:39:10.346Z,11.10
2023-12-07T00:39:43.353Z,11.60
2023-12-07T00:40:49.848Z,11.50
2023-12-07T00:41:25.936Z,10.80
2023-12-07T00:49:44.157Z,8.30
2023-12-07T00:50:17.411Z,10.60
2023-12-07T00:50:50.531Z,12.00
2023-12-07T00:53:02.593Z,10.00
2023-12-07T00:55:15.216Z,9.20
2023-12-07T00:55:48.357Z,13.10
2023-12-07T00:56:57.594Z,11.30
2023-12-07T00:57:30.589Z,10.60
2023-12-07T00:58:37.430Z,12.10
2023-12-07T00:59:10.585Z,10.40
2023-12-07T00:59:43.616Z,13.80
2023-12-07T01:00:16.864Z,9.60
2023-12-07T01:00:50.084Z,14.10
2023-12-07T01:01:23.125Z,13.00
2023-12-07T01:01:56.103Z,12.90
2023-12-07T01:02:29.088Z,11.40
2023-12-07T01:03:02.023Z,10.70
2023-12-07T01:04:08.774Z,11.70
2023-12-07T01:04:41.998Z,11.70
2023-12-07T01:05:15.155Z,15.20
2023-12-07T01:06:21.326Z,11.00
2023-12-07T01:06:54.612Z,10.50
2023-12-07T01:07:28.147Z,10.60
2023-12-07T01:08:01.191Z,12.00
2023-12-07T01:08:34.178Z,11.20
2023-12-07T01:09:07.475Z,11.70
2023-12-07T01:09:40.780Z,11.10
2023-12-07T01:10:13.887Z,10.60
2023-12-07T01:11:20.383Z,8.60
2023-12-07T01:12:26.864Z,9.60
2023-12-07T01:13:00.179Z,13.60
2023-12-07T01:13:33.289Z,10.70
2023-12-07T01:15:12.396Z,12.50
2023-12-07T01:15:45.404Z,9.30
2023-12-07T01:16:18.432Z,11.30
2023-12-07T01:19:03.357Z,10.40
2023-12-07T01:19:36.658Z,9.20
2023-12-07T01:20:13.555Z,9.70
2023-12-07T01:20:46.569Z,12.90
2023-12-07T01:21:19.703Z,10.80
2023-12-07T01:22:59.169Z,9.80
2023-12-07T01:23:33.449Z,10.50
2023-12-07T01:24:13.569Z,7.20
2023-12-07T01:24:49.658Z,9.30
2023-12-07T01:25:57.185Z,8.80
2023-12-07T01:26:30.294Z,9.90
2023-12-07T01:27:03.298Z,11.60
2023-12-07T01:27:36.448Z,9.70
2023-12-07T01:28:10.515Z,8.70
2023-12-07T01:28:43.604Z,11.00
2023-12-07T01:29:16.591Z,9.60
2023-12-07T01:29:49.609Z,10.30
2023-12-07T01:30:22.934Z,10.00
2023-12-07T01:31:29.645Z,10.80
2023-12-07T01:32:02.689Z,8.10
2023-12-07T01:33:09.379Z,9.80
2023-12-07T01:34:16.276Z,7.90
2023-12-07T01:34:49.596Z,10.90
2023-12-07T01:35:22.626Z,9.30
2023-12-07T01:35:55.753Z,9.70
2023-12-07T01:36:28.774Z,8.10
2023-12-07T01:37:02.070Z,13.00
2023-12-07T01:37:36.459Z,10.20
2023-12-07T01:38:09.608Z,12.80
2023-12-07T01:39:17.174Z,10.20
2023-12-07T01:39:50.628Z,9.90
2023-12-07T01:40:23.890Z,5.60
2023-12-07T01:40:56.823Z,13.00
2023-12-07T01:41:30.216Z,10.50
2023-12-07T01:42:03.301Z,10.10
2023-12-07T01:42:36.340Z,9.60
2023-12-07T01:43:09.323Z,12.40
2023-12-07T01:43:48.462Z,9.00
2023-12-07T01:44:21.530Z,11.40
2023-12-07T01:46:00.925Z,8.80
2023-12-07T01:46:35.117Z,8.70
2023-12-07T01:47:09.275Z,8.90
2023-12-07T01:47:42.863Z,9.90
2023-12-07T01:48:16.061Z,8.90
2023-12-07T01:49:23.935Z,8.80
2023-12-07T01:49:57.030Z,8.80
2023-12-07T01:50:30.558Z,9.90
2023-12-07T01:51:04.920Z,12.20
2023-12-07T01:51:38.443Z,10.60
2023-12-07T01:52:11.974Z,15.20
2023-12-07T01:52:48.873Z,9.60
2023-12-07T01:53:24.193Z,8.90
2023-12-07T01:53:57.186Z,10.90
2023-12-07T01:55:04.138Z,12.70
2023-12-07T01:55:37.926Z,7.80
2023-12-07T01:56:11.682Z,12.20
2023-12-07T01:56:44.697Z,11.00
2023-12-07T01:57:50.819Z,9.80
2023-12-07T01:58:57.017Z,7.80
2023-12-07T02:00:37.721Z,8.10
2023-12-07T02:01:12.679Z,8.60
2023-12-07T02:01:46.232Z,8.20
2023-12-07T02:02:20.204Z,9.60
2023-12-07T02:02:53.581Z,7.70
2023-12-07T02:03:28.807Z,11.30
2023-12-07T02:04:02.106Z,9.50
2023-12-07T02:05:09.298Z,10.80
2023-12-07T02:05:44.702Z,8.30
2023-12-07T02:06:17.976Z,9.40
2023-12-07T02:07:24.772Z,8.00
2023-12-07T02:07:57.950Z,10.20
2023-12-07T02:08:31.543Z,12.40
2023-12-07T02:09:38.875Z,8.30
2023-12-07T02:10:12.662Z,9.70
2023-12-07T02:10:47.299Z,11.00
2023-12-07T02:11:20.709Z,8.70
2023-12-07T02:11:55.269Z,9.30
2023-12-07T02:12:30.935Z,11.00
2023-12-07T02:13:04.836Z,8.10
2023-12-07T02:13:42.957Z,10.10
2023-12-07T02:14:16.150Z,8.10
2023-12-07T02:14:49.270Z,10.00
2023-12-07T02:15:59.284Z,12.20
2023-12-07T02:16:40.761Z,8.20
2023-12-07T02:17:36.960Z,13.20
2023-12-07T02:18:33.740Z,17.90
2023-12-07T02:19:27.870Z,7.90
2023-12-07T02:20:11.545Z,8.90
2023-12-07T02:20:50.260Z,8.10
2023-12-07T02:21:31.641Z,6.50
2023-12-07T02:22:17.540Z,9.80
2023-12-07T02:23:14.376Z,6.60
2023-12-07T02:23:52.560Z,9.00
2023-12-07T02:24:28.414Z,10.60
2023-12-07T02:25:09.849Z,9.90
2023-12-07T02:25:55.918Z,9.20
2023-12-07T02:26:39.781Z,7.70
2023-12-07T02:27:12.853Z,10.90
2023-12-07T02:27:49.599Z,12.00
2023-12-07T02:28:23.229Z,8.80
2023-12-07T02:29:29.313Z,10.20
2023-12-07T02:30:35.491Z,7.80
2023-12-07T02:31:41.746Z,7.00
2023-12-07T02:32:48.166Z,10.00
2023-12-07T02:33:22.496Z,10.60
2023-12-07T02:33:56.675Z,7.10
2023-12-07T02:34:30.113Z,6.60
2023-12-07T02:35:03.576Z,6.80
2023-12-07T02:35:38.489Z,10.60
2023-12-07T02:36:16.192Z,10.50
2023-12-07T02:36:50.298Z,7.90
2023-12-07T02:37:28.737Z,6.80
2023-12-07T02:38:02.758Z,7.90
2023-12-07T02:38:37.495Z,7.60
2023-12-07T02:39:14.747Z,7.60
2023-12-07T02:39:49.497Z,10.30
2023-12-07T02:40:28.410Z,10.10
2023-12-07T02:41:02.975Z,11.30
2023-12-07T02:41:37.937Z,7.70
2023-12-07T02:42:11.937Z,7.20
2023-12-07T02:42:45.403Z,9.20
2023-12-07T02:43:19.077Z,9.60
2023-12-07T02:43:52.999Z,7.90
2023-12-07T02:44:26.686Z,9.60
2023-12-07T02:45:00.888Z,7.80
2023-12-07T02:45:34.354Z,8.40
2023-12-07T02:46:07.523Z,11.50
2023-12-07T02:46:40.843Z,12.00
2023-12-07T02:47:14.072Z,6.70
2023-12-07T02:47:47.507Z,8.40
2023-12-07T02:48:22.398Z,8.30
2023-12-07T02:48:55.713Z,7.30
2023-12-07T02:49:28.981Z,8.20
2023-12-07T02:50:35.281Z,8.40
2023-12-07T02:51:08.476Z,8.20
2023-12-07T02:51:41.575Z,10.40
2023-12-07T02:52:15.110Z,9.00
2023-12-07T02:52:48.449Z,7.70
2023-12-07T02:53:21.627Z,9.30
2023-12-07T02:53:54.727Z,6.60
2023-12-07T02:54:28.012Z,9.20
2023-12-07T02:55:01.508Z,8.80
2023-12-07T02:55:34.746Z,9.70
2023-12-07T02:56:08.498Z,8.30
2023-12-07T02:56:41.593Z,8.00
2023-12-07T02:57:15.869Z,5.60
2023-12-07T02:57:49.063Z,7.80
2023-12-07T02:58:22.137Z,7.00
2023-12-07T02:59:28.393Z,9.20
2023-12-07T03:00:34.660Z,7.40
2023-12-07T03:01:08.055Z,8.30
2023-12-07T03:01:41.628Z,7.70
2023-12-07T03:02:14.792Z,7.70
2023-12-07T03:02:49.071Z,11.00
2023-12-07T03:03:22.295Z,7.50
2023-12-07T03:03:55.678Z,7.90
2023-12-07T03:04:28.883Z,9.20
2023-12-07T03:05:02.528Z,8.30
2023-12-07T03:05:35.805Z,6.00
2023-12-07T03:06:09.107Z,8.90
2023-12-07T03:06:42.273Z,8.30
2023-12-07T03:07:48.809Z,8.60
2023-12-07T03:08:21.966Z,6.70
2023-12-07T03:09:28.164Z,8.10
2023-12-07T03:10:01.542Z,8.10
2023-12-07T03:10:34.872Z,5.50
2023-12-07T03:11:10.316Z,9.30
2023-12-07T03:11:43.442Z,8.30
2023-12-07T03:12:16.706Z,7.40
2023-12-07T03:13:22.887Z,7.30
2023-12-07T03:13:56.104Z,8.00
2023-12-07T03:14:29.224Z,6.80
2023-12-07T03:15:05.625Z,11.60
2023-12-07T03:15:38.776Z,7.70
2023-12-07T03:16:11.990Z,7.30
2023-12-07T03:17:18.378Z,7.30
2023-12-07T03:17:51.909Z,6.70
2023-12-07T03:18:26.301Z,8.00
2023-12-07T03:18:59.558Z,11.20
2023-12-07T03:19:32.818Z,9.10
2023-12-07T03:20:06.806Z,6.50
2023-12-07T03:20:39.910Z,7.90
2023-12-07T03:21:13.389Z,6.90
2023-12-07T03:21:46.533Z,8.40
2023-12-07T03:22:20.092Z,6.80
2023-12-07T03:22:53.433Z,7.20
2023-12-07T03:23:26.609Z,8.40
2023-12-07T03:23:59.791Z,9.20
2023-12-07T03:24:33.268Z,8.90
2023-12-07T03:25:07.065Z,8.30
2023-12-07T03:25:40.738Z,9.80
2023-12-07T03:26:14.308Z,9.50
2023-12-07T03:26:47.413Z,5.90
2023-12-07T03:27:21.083Z,7.80
2023-12-07T03:27:54.429Z,8.10
2023-12-07T03:29:01.145Z,7.20
2023-12-07T03:29:34.307Z,6.70
2023-12-07T03:30:40.536Z,5.60
2023-12-07T03:31:13.817Z,9.40
2023-12-07T03:31:47.135Z,7.80
2023-12-07T03:32:20.280Z,9.70
2023-12-07T03:32:53.722Z,5.90
2023-12-07T03:33:27.415Z,8.30
2023-12-07T03:34:02.421Z,8.20
2023-12-07T03:34:35.725Z,8.00
2023-12-07T03:35:08.932Z,6.30
2023-12-07T03:35:42.290Z,7.50
2023-12-07T03:36:15.444Z,6.60
2023-12-07T03:36:49.422Z,9.20
2023-12-07T03:37:22.593Z,7.00
2023-12-07T03:37:55.710Z,8.00
2023-12-07T03:39:01.892Z,7.80
2023-12-07T03:39:35.139Z,6.50
2023-12-07T03:40:10.208Z,6.90
2023-12-07T03:40:43.469Z,7.10
2023-12-07T03:41:16.922Z,11.00
2023-12-07T03:41:50.534Z,6.60
2023-12-07T03:42:49.694Z,6.30
2023-12-07T03:43:18.763Z,6.00
2023-12-07T03:43:51.925Z,7.30
2023-12-07T03:44:25.112Z,6.90
2023-12-07T03:44:58.384Z,7.00
2023-12-07T03:45:31.665Z,11.40
2023-12-07T03:46:08.879Z,5.00
2023-12-07T03:46:42.452Z,6.40
2023-12-07T03:47:15.695Z,5.30
2023-12-07T03:47:48.755Z,9.20
2023-12-07T03:48:23.123Z,7.10
2023-12-07T03:48:56.348Z,9.60
2023-12-07T03:49:29.753Z,6.80
2023-12-07T03:50:02.885Z,6.10
2023-12-07T03:50:35.986Z,9.00
2023-12-07T03:51:42.257Z,6.60
2023-12-07T03:52:15.480Z,6.90
2023-12-07T03:52:48.743Z,6.50
2023-12-07T03:53:21.911Z,6.90
2023-12-07T03:53:57.675Z,8.00
2023-12-07T03:54:30.776Z,6.90
2023-12-07T03:55:04.169Z,6.70
2023-12-07T03:55:38.117Z,6.30
2023-12-07T03:56:11.669Z,6.60
2023-12-07T03:56:44.751Z,5.60
2023-12-07T03:57:17.904Z,7.50
2023-12-07T03:58:24.177Z,5.90
2023-12-07T03:58:58.214Z,5.70
2023-12-07T03:59:31.380Z,7.70
2023-12-07T04:00:08.319Z,9.30
2023-12-07T04:00:41.698Z,7.00
2023-12-07T04:01:14.936Z,6.00
2023-12-07T04:01:48.259Z,7.70
2023-12-07T04:02:21.959Z,5.80
2023-12-07T04:02:55.455Z,8.20
2023-12-07T04:03:28.688Z,9.10
2023-12-07T04:04:02.015Z,6.10
2023-12-07T04:04:35.380Z,8.50
2023-12-07T04:05:08.635Z,5.60
2023-12-07T04:05:41.947Z,4.90
2023-12-07T04:06:15.933Z,5.10
2023-12-07T04:06:49.554Z,6.40
2023-12-07T04:07:25.221Z,8.40
2023-12-07T04:07:58.497Z,6.40
2023-12-07T04:08:31.685Z,6.60
2023-12-07T04:09:06.362Z,7.60
2023-12-07T04:09:39.657Z,7.60
2023-12-07T04:10:13.101Z,5.80
2023-12-07T04:10:46.719Z,8.30
2023-12-07T04:11:20.390Z,7.80
2023-12-07T04:12:26.907Z,5.40
2023-12-07T04:13:00.156Z,6.10
2023-12-07T04:13:33.500Z,6.70
2023-12-07T04:14:06.695Z,3.60
2023-12-07T04:15:18.500Z,6.10
2023-12-07T04:15:52.815Z,7.50
2023-12-07T04:16:27.148Z,6.20
2023-12-07T04:17:00.466Z,8.50
2023-12-07T04:17:33.807Z,7.00
2023-12-07T04:18:07.015Z,6.20
2023-12-07T04:18:40.310Z,7.60
2023-12-07T04:19:13.564Z,3.80
2023-12-07T04:19:47.065Z,6.80
2023-12-07T04:20:20.281Z,6.80
2023-12-07T04:20:53.496Z,5.00
2023-12-07T04:21:26.659Z,10.50
2023-12-07T04:22:33.220Z,4.70
2023-12-07T04:23:07.479Z,6.40
2023-12-07T04:24:13.730Z,5.20
2023-12-07T04:25:20.498Z,7.20
2023-12-07T04:25:54.077Z,6.90
2023-12-07T04:26:27.247Z,5.50
2023-12-07T04:27:00.469Z,6.00
2023-12-07T04:27:35.126Z,4.90
2023-12-07T04:28:08.476Z,9.40
2023-12-07T04:28:41.728Z,6.20
2023-12-07T04:29:14.934Z,7.50
2023-12-07T04:30:21.087Z,8.10
2023-12-07T04:30:54.301Z,6.30
2023-12-07T04:31:27.535Z,15.70
2023-12-07T04:32:01.142Z,3.70
2023-12-07T04:32:34.400Z,5.50
2023-12-07T04:33:07.840Z,6.00
2023-12-07T04:33:41.308Z,10.60
2023-12-07T04:34:14.467Z,7.00
2023-12-07T04:34:47.600Z,10.00
2023-12-07T04:35:21.133Z,7.40
2023-12-07T04:36:27.405Z,7.90
2023-12-07T04:37:33.601Z,6.70
2023-12-07T04:38:39.886Z,6.60
2023-12-07T04:39:46.619Z,4.70
2023-12-07T04:40:19.883Z,5.00
2023-12-07T04:40:53.008Z,5.90
2023-12-07T04:42:00.397Z,6.40
2023-12-07T04:42:33.454Z,5.10
2023-12-07T04:43:06.937Z,4.50
2023-12-07T04:44:13.262Z,5.30
2023-12-07T04:44:46.561Z,4.80
2023-12-07T04:45:19.748Z,5.20
2023-12-07T04:46:26.753Z,5.70
2023-12-07T04:46:59.892Z,4.90
2023-12-07T04:47:34.201Z,5.50
2023-12-07T04:48:07.533Z,8.10
2023-12-07T04:48:41.498Z,6.80
2023-12-07T04:49:14.756Z,4.20
2023-12-07T04:49:48.106Z,6.50
2023-12-07T04:50:22.101Z,5.40
2023-12-07T04:51:28.200Z,4.40
2023-12-07T04:52:35.590Z,4.20
2023-12-07T04:53:09.987Z,6.10
2023-12-07T04:53:43.201Z,6.20
2023-12-07T04:54:19.722Z,7.40
2023-12-07T04:54:53.501Z,5.40
2023-12-07T04:56:01.025Z,5.90
2023-12-07T04:56:34.115Z,5.80
2023-12-07T04:57:07.862Z,4.90
2023-12-07T04:57:41.036Z,5.10
2023-12-07T04:58:14.869Z,6.80
2023-12-07T04:58:48.053Z,4.40
2023-12-07T04:59:54.233Z,5.70
2023-12-07T05:00:28.531Z,6.80
2023-12-07T05:01:02.350Z,4.20
2023-12-07T05:01:37.545Z,6.80
2023-12-07T05:02:10.758Z,6.70
2023-12-07T05:02:44.063Z,4.40
2023-12-07T05:03:17.576Z,6.40
2023-12-07T05:03:50.679Z,6.30
2023-12-07T05:04:23.779Z,8.00
2023-12-07T05:04:57.068Z,5.30
2023-12-07T05:05:30.250Z,8.20
2023-12-07T05:06:03.485Z,5.30
2023-12-07T05:06:36.912Z,4.60
2023-12-07T05:07:10.436Z,4.00
2023-12-07T05:07:43.733Z,8.90
2023-12-07T05:08:17.326Z,8.90
2023-12-07T05:08:50.909Z,6.30
2023-12-07T05:09:24.017Z,7.80
2023-12-07T05:09:57.131Z,7.20
2023-12-07T05:10:30.479Z,6.10
2023-12-07T05:11:03.678Z,6.30
2023-12-07T05:11:37.510Z,5.30
2023-12-07T05:12:10.588Z,8.00
2023-12-07T05:13:16.659Z,7.10
2023-12-07T05:13:49.948Z,6.30
2023-12-07T05:14:24.223Z,8.70
2023-12-07T05:14:57.370Z,6.90
2023-12-07T05:16:04.417Z,8.10
2023-12-07T05:16:37.719Z,7.10
2023-12-07T05:17:10.932Z,5.80
2023-12-07T05:17:44.311Z,7.80
2023-12-07T05:18:17.986Z,5.10
2023-12-07T05:18:51.156Z,6.20
2023-12-07T05:19:58.198Z,5.80
2023-12-07T05:20:31.806Z,7.00
2023-12-07T05:21:05.862Z,9.00
2023-12-07T05:21:39.648Z,4.60
2023-12-07T05:22:12.790Z,8.80
2023-12-07T05:22:45.952Z,6.40
2023-12-07T05:23:19.206Z,8.00
2023-12-07T05:23:52.503Z,9.50
2023-12-07T05:24:25.833Z,7.10
2023-12-07T05:24:58.932Z,4.80
2023-12-07T05:26:09.348Z,7.50
2023-12-07T05:26:49.885Z,9.00
2023-12-07T05:27:23.219Z,5.80
2023-12-07T05:27:56.353Z,7.40
2023-12-07T05:29:03.302Z,7.20
2023-12-07T05:29:39.559Z,3.80
2023-12-07T05:30:14.142Z,8.20
2023-12-07T05:30:47.951Z,6.60
2023-12-07T05:31:21.152Z,6.80
2023-12-07T05:32:27.533Z,4.70
2023-12-07T05:33:02.074Z,5.40
2023-12-07T05:33:35.583Z,5.10
2023-12-07T05:34:09.245Z,6.60
2023-12-07T05:34:43.312Z,4.80
2023-12-07T05:35:16.541Z,7.50
2023-12-07T05:35:49.748Z,4.30
2023-12-07T05:36:23.027Z,5.40
2023-12-07T05:36:56.207Z,5.80
2023-12-07T05:37:29.578Z,9.70
2023-12-07T05:38:02.871Z,12.30
2023-12-07T05:38:36.079Z,6.50
2023-12-07T05:39:09.224Z,6.90
2023-12-07T05:40:15.456Z,6.00
2023-12-07T05:40:48.546Z,9.10
2023-12-07T05:41:54.625Z,5.90
2023-12-07T05:42:27.780Z,5.60
2023-12-07T05:43:35.110Z,6.50
2023-12-07T05:44:10.376Z,7.50
2023-12-07T05:44:43.541Z,9.90
2023-12-07T05:45:50.476Z,4.20
2023-12-07T05:46:56.701Z,4.70
2023-12-07T05:48:03.206Z,5.60
2023-12-07T05:48:36.531Z,6.30
2023-12-07T05:49:10.555Z,6.10
2023-12-07T05:49:44.037Z,8.50
2023-12-07T05:50:17.261Z,4.00
2023-12-07T05:51:24.051Z,5.50
2023-12-07T05:51:58.427Z,6.60
2023-12-07T05:53:04.621Z,4.60
2023-12-07T05:54:11.523Z,4.60
2023-12-07T05:54:46.824Z,9.50
2023-12-07T05:55:19.907Z,5.80
2023-12-07T05:55:53.339Z,7.20
2023-12-07T05:56:26.548Z,8.20
2023-12-07T05:56:59.678Z,7.00
2023-12-07T05:58:06.792Z,7.20
2023-12-07T05:58:39.981Z,7.00
2023-12-07T05:59:13.256Z,4.70
2023-12-07T05:59:46.533Z,6.90
2023-12-07T06:00:20.279Z,3.80
2023-12-07T06:00:53.720Z,8.10
2023-12-07T06:01:27.087Z,7.40
2023-12-07T06:02:00.433Z,5.70
2023-12-07T06:02:34.124Z,7.50
2023-12-07T06:03:07.266Z,7.20
2023-12-07T06:03:40.462Z,4.30
2023-12-07T06:04:47.503Z,6.80
2023-12-07T06:05:54.340Z,9.80
2023-12-07T06:06:27.592Z,6.30
2023-12-07T06:07:00.915Z,6.70
2023-12-07T06:07:34.150Z,7.80
2023-12-07T06:08:07.368Z,5.20
2023-12-07T06:08:41.747Z,4.70
2023-12-07T06:09:15.478Z,6.00
2023-12-07T06:09:48.608Z,5.30
2023-12-07T06:10:22.287Z,7.90
2023-12-07T06:11:28.415Z,4.80
2023-12-07T06:12:34.497Z,4.20
2023-12-07T06:13:09.024Z,7.10
2023-12-07T06:13:42.478Z,8.00
2023-12-07T06:14:15.649Z,12.90
2023-12-07T06:14:50.346Z,5.60
2023-12-07T06:15:23.871Z,10.60
2023-12-07T06:15:57.106Z,6.10
2023-12-07T06:16:30.280Z,6.90
2023-12-07T06:17:03.589Z,5.20
2023-12-07T06:17:36.848Z,6.50
2023-12-07T06:18:10.375Z,4.90
2023-12-07T06:18:43.716Z,6.00
2023-12-07T06:19:17.075Z,7.90
2023-12-07T06:19:50.295Z,6.50
2023-12-07T06:20:23.370Z,6.40
2023-12-07T06:21:31.310Z,7.60
2023-12-07T06:22:04.662Z,4.50
2023-12-07T06:22:38.373Z,4.50
2023-12-07T06:23:14.056Z,5.10
2023-12-07T06:23:48.062Z,8.10
2023-12-07T06:24:24.591Z,8.00
2023-12-07T06:24:57.827Z,4.70
2023-12-07T06:25:30.967Z,5.60
2023-12-07T06:26:05.873Z,10.20
2023-12-07T06:26:39.036Z,3.60
2023-12-07T06:27:45.630Z,3.50
2023-12-07T06:28:18.965Z,5.80
2023-12-07T06:28:53.804Z,7.60
2023-12-07T06:29:29.927Z,7.70
2023-12-07T06:30:03.495Z,6.20
2023-12-07T06:30:36.593Z,8.60
2023-12-07T06:31:46.369Z,4.40
2023-12-07T06:32:19.462Z,4.80
2023-12-07T06:33:25.888Z,7.30
2023-12-07T06:33:59.241Z,7.20
2023-12-07T06:34:33.295Z,5.90
2023-12-07T06:35:07.562Z,7.00
2023-12-07T06:35:40.697Z,6.90
2023-12-07T06:36:22.608Z,4.40
2023-12-07T06:36:55.884Z,5.00
2023-12-07T06:37:29.062Z,9.60
2023-12-07T06:38:03.177Z,6.50
2023-12-07T06:38:36.338Z,6.20
2023-12-07T06:39:09.596Z,3.30
2023-12-07T06:39:42.979Z,4.40
2023-12-07T06:40:16.211Z,10.70
2023-12-07T06:40:49.469Z,7.00
2023-12-07T06:41:22.942Z,7.30
2023-12-07T06:41:56.753Z,6.70
2023-12-07T06:42:29.930Z,4.70
2023-12-07T06:43:36.185Z,6.50
2023-12-07T06:44:09.650Z,5.10
2023-12-07T06:44:44.913Z,5.60
2023-12-07T06:45:18.037Z,4.60
2023-12-07T06:46:24.434Z,5.70
2023-12-07T06:46:57.550Z,4.40
2023-12-07T06:47:30.772Z,6.60
2023-12-07T06:48:04.598Z,10.10
2023-12-07T06:48:37.808Z,5.10
2023-12-07T06:49:11.214Z,4.50
2023-12-07T06:49:51.949Z,5.90
2023-12-07T06:50:26.228Z,6.10
2023-12-07T06:51:35.090Z,4.40
2023-12-07T06:52:08.460Z,5.40
2023-12-07T06:52:41.930Z,8.10
2023-12-07T06:53:15.746Z,6.10
2023-12-07T06:53:49.194Z,7.60
2023-12-07T06:54:22.366Z,4.50
2023-12-07T06:54:55.884Z,4.10
2023-12-07T06:55:29.346Z,5.10
2023-12-07T06:56:02.591Z,5.00
2023-12-07T06:56:36.173Z,5.80
2023-12-07T06:57:09.282Z,4.10
2023-12-07T06:57:42.413Z,4.10
2023-12-07T06:58:15.693Z,6.80
2023-12-07T06:58:48.933Z,4.20
2023-12-07T06:59:55.407Z,3.80
2023-12-07T07:00:28.517Z,3.60
2023-12-07T07:01:34.909Z,4.60
2023-12-07T07:02:08.350Z,6.90
2023-12-07T07:02:41.637Z,5.00
2023-12-07T07:03:15.597Z,3.30
2023-12-07T07:03:48.711Z,3.40
2023-12-07T07:04:22.998Z,5.30
2023-12-07T07:04:56.394Z,7.70
2023-12-07T07:05:29.519Z,5.50
2023-12-07T07:06:02.779Z,4.50
2023-12-07T07:06:36.339Z,4.10
2023-12-07T07:07:11.626Z,4.20
2023-12-07T07:07:44.889Z,6.00
2023-12-07T07:08:19.358Z,4.80
2023-12-07T07:08:52.573Z,3.40
2023-12-07T07:09:26.379Z,6.10
2023-12-07T07:10:00.333Z,6.50
2023-12-07T07:10:34.628Z,4.80
2023-12-07T07:11:17.351Z,6.80
2023-12-07T07:11:50.532Z,3.50
2023-12-07T07:12:23.688Z,4.20
2023-12-07T07:13:01.880Z,3.70
2023-12-07T07:13:34.998Z,5.90
2023-12-07T07:15:14.312Z,2.40
2023-12-07T07:16:22.097Z,5.10
2023-12-07T07:17:30.110Z,6.20
2023-12-07T07:18:03.655Z,5.70
2023-12-07T07:18:39.570Z,4.70
2023-12-07T07:19:12.912Z,5.90
2023-12-07T07:19:46.185Z,6.10
2023-12-07T07:20:52.803Z,5.70
2023-12-07T07:21:25.911Z,3.30
2023-12-07T07:22:32.379Z,3.20
2023-12-07T07:23:05.649Z,5.30
2023-12-07T07:24:12.428Z,3.30
2023-12-07T07:24:45.464Z,4.20
2023-12-07T07:25:53.552Z,5.70
2023-12-07T07:26:59.611Z,4.00
2023-12-07T07:28:06.087Z,4.70
2023-12-07T07:28:39.341Z,5.60
2023-12-07T07:29:12.515Z,6.60
2023-12-07T07:29:45.786Z,3.70
2023-12-07T07:30:18.970Z,5.20
2023-12-07T07:30:52.931Z,5.70
2023-12-07T07:31:26.189Z,5.60
2023-12-07T07:31:59.358Z,2.90
2023-12-07T07:32:32.530Z,6.10
2023-12-07T07:33:05.821Z,4.20
2023-12-07T07:33:39.362Z,4.60
2023-12-07T07:34:12.900Z,3.30
2023-12-07T07:34:46.332Z,5.50
2023-12-07T07:35:19.733Z,5.00
2023-12-07T07:35:58.033Z,4.50
2023-12-07T07:36:33.414Z,5.20
2023-12-07T07:37:08.406Z,4.30
2023-12-07T07:37:42.814Z,5.80
2023-12-07T07:38:16.086Z,6.10
2023-12-07T07:38:49.334Z,5.50
2023-12-07T07:39:22.454Z,4.00
2023-12-07T07:40:28.563Z,5.50
2023-12-07T07:41:37.327Z,4.40
2023-12-07T07:42:10.518Z,2.60
2023-12-07T07:42:43.733Z,5.20
2023-12-07T07:43:16.893Z,5.60
2023-12-07T07:43:50.292Z,3.20
2023-12-07T07:44:23.446Z,3.80
2023-12-07T07:45:29.702Z,5.30
2023-12-07T07:46:02.859Z,3.60
2023-12-07T07:46:36.339Z,6.40
2023-12-07T07:47:09.527Z,2.90
2023-12-07T07:48:16.331Z,6.80
2023-12-07T07:48:49.678Z,9.50
2023-12-07T07:49:23.337Z,6.30
2023-12-07T07:49:56.469Z,3.60
2023-12-07T07:51:03.948Z,6.60
2023-12-07T07:51:37.248Z,5.10
2023-12-07T07:52:10.451Z,4.90
2023-12-07T07:52:43.597Z,2.90
2023-12-07T07:53:16.934Z,5.60
2023-12-07T07:53:51.256Z,5.10
2023-12-07T07:54:24.559Z,3.80
2023-12-07T07:54:57.680Z,2.30
2023-12-07T07:55:33.142Z,2.70
2023-12-07T07:56:06.607Z,5.20
2023-12-07T07:56:39.761Z,4.80
2023-12-07T07:57:13.000Z,3.70
2023-12-07T07:57:46.109Z,6.00
2023-12-07T07:58:54.797Z,3.80
2023-12-07T08:00:01.358Z,4.70
2023-12-07T08:00:35.784Z,6.40
2023-12-07T08:01:09.191Z,4.50
2023-12-07T08:01:43.588Z,6.10
2023-12-07T08:02:18.728Z,4.60
2023-12-07T08:02:54.130Z,4.80
2023-12-07T08:03:28.638Z,4.50
2023-12-07T08:04:01.986Z,7.00
2023-12-07T08:05:12.430Z,4.30
2023-12-07T08:05:49.630Z,5.40
2023-12-07T08:06:26.265Z,3.60
2023-12-07T08:07:01.550Z,5.40
2023-12-07T08:07:34.972Z,5.60
2023-12-07T08:08:08.983Z,5.10
2023-12-07T08:08:42.168Z,6.60
2023-12-07T08:09:15.407Z,3.90
2023-12-07T08:09:48.713Z,4.80
2023-12-07T08:10:57.967Z,3.30
2023-12-07T08:11:33.942Z,3.50
2023-12-07T08:12:09.897Z,5.30
2023-12-07T08:12:43.077Z,4.40
2023-12-07T08:13:49.533Z,3.30
2023-12-07T08:14:23.444Z,4.40
2023-12-07T08:14:56.655Z,4.90
2023-12-07T08:15:29.911Z,1.90
2023-12-07T08:16:06.200Z,3.90
2023-12-07T08:16:39.464Z,7.30
2023-12-07T08:17:12.974Z,8.40
2023-12-07T08:17:47.327Z,6.80
2023-12-07T08:18:20.707Z,8.60
2023-12-07T08:18:59.938Z,4.70
2023-12-07T08:19:33.475Z,6.00
2023-12-07T08:20:11.776Z,3.80
2023-12-07T08:20:47.717Z,3.50
2023-12-07T08:21:26.115Z,5.00
2023-12-07T08:22:05.606Z,5.60
2023-12-07T08:22:40.260Z,6.70
2023-12-07T08:23:16.795Z,3.00
2023-12-07T08:23:52.576Z,5.60
2023-12-07T08:24:26.612Z,2.70
2023-12-07T08:25:11.402Z,5.90
2023-12-07T08:25:49.368Z,4.10
2023-12-07T08:26:29.381Z,4.30
2023-12-07T08:27:04.719Z,4.10
2023-12-07T08:27:39.152Z,4.90
2023-12-07T08:28:15.290Z,6.60
2023-12-07T08:28:49.032Z,3.10
2023-12-07T08:29:23.355Z,7.50
2023-12-07T08:29:57.395Z,4.20
2023-12-07T08:30:31.321Z,3.90
2023-12-07T08:31:04.644Z,7.00
2023-12-07T08:31:37.806Z,6.80
2023-12-07T08:32:13.230Z,5.40
2023-12-07T08:32:46.479Z,4.00
2023-12-07T08:33:19.840Z,5.40
2023-12-07T08:33:53.326Z,5.10
2023-12-07T08:34:30.598Z,4.30
2023-12-07T08:35:04.440Z,3.90
2023-12-07T08:35:37.770Z,5.80
2023-12-07T08:36:11.355Z,8.60
2023-12-07T08:36:49.760Z,5.30
2023-12-07T08:37:24.197Z,3.70
2023-12-07T08:37:57.424Z,3.50
2023-12-07T08:38:30.633Z,4.00
2023-12-07T08:39:04.089Z,6.10
2023-12-07T08:39:41.945Z,3.60
2023-12-07T08:40:16.674Z,5.70
2023-12-07T08:40:50.093Z,5.20
2023-12-07T08:41:23.283Z,3.70
2023-12-07T08:41:59.213Z,2.20
2023-12-07T08:42:33.152Z,3.30
2023-12-07T08:43:06.519Z,5.60
2023-12-07T08:43:43.876Z,5.40
2023-12-07T08:44:17.184Z,3.70
2023-12-07T08:44:53.342Z,2.80
2023-12-07T08:45:26.643Z,3.60
2023-12-07T08:46:02.840Z,2.40
2023-12-07T08:47:09.335Z,12.20
2023-12-07T08:48:16.740Z,3.90
2023-12-07T08:48:52.993Z,4.30
2023-12-07T08:49:29.673Z,5.60
2023-12-07T08:50:02.858Z,6.10
2023-12-07T08:50:36.234Z,4.80
2023-12-07T08:51:09.867Z,5.70
2023-12-07T08:52:03.086Z,4.60
2023-12-07T08:52:48.100Z,6.70
2023-12-07T08:53:28.595Z,4.50
2023-12-07T08:54:01.789Z,9.00
2023-12-07T08:54:35.051Z,4.80
2023-12-07T08:55:08.716Z,3.30
2023-12-07T08:55:42.643Z,5.20
2023-12-07T08:56:15.921Z,3.60
2023-12-07T08:56:50.993Z,6.20
2023-12-07T08:57:24.569Z,3.30
2023-12-07T08:57:57.948Z,5.30
2023-12-07T08:58:34.390Z,5.60
2023-12-07T08:59:07.671Z,5.90
2023-12-07T08:59:43.815Z,4.00
2023-12-07T09:00:18.915Z,2.40